Time;durP1;ratioP1;P1;durP2;ratioP2;P2;SDS_P1;SDS_P2;PMS_P1;PMS_P2;Temp;Humidity;BMP_temperature;BMP_pressure;BME280_temperature;BME280_humidity;BME280_pressure;Samples;Min_cycle;Max_cycle;Signal;HPM_P1;HPM_P2
2020/01/03 00:00:10;;;;;;;67.4;30.1;;;;;;;0.34;82.45117;971.1528;;;;
2020/01/03 00:05:05;;;;;;;55.1;33;;;;;;;0.21;82.74512;971.2785;;;;
2020/01/03 00:07:25;;;;;;;55.2;31.8;;;;;;;0.21;82.74316;971.3553;;;;
2020/01/03 00:09:50;;;;;;;39.7;30.1;;;;;;;0.35;82.51953;971.2656;;;;
2020/01/03 00:12:15;;;;;;;47.4;30;;;;;;;0.32;82.22852;971.2277;;;;
2020/01/03 00:14:40;;;;;;;47.5;30.6;;;;;;;0.28;82.32227;971.204;;;;
2020/01/03 00:17:06;;;;;;;74.1;35;;;;;;;0.06;82.89941;971.1866;;;;
2020/01/03 00:19:31;;;;;;;57.1;31.6;;;;;;;0.18;82.55566;971.2261;;;;
2020/01/03 00:21:56;;;;;;;52.4;29.7;;;;;;;0.18;82.37207;971.1358;;;;
2020/01/03 00:24:21;;;;;;;43.7;31.4;;;;;;;0.24;82.02832;971.2302;;;;
2020/01/03 00:26:46;;;;;;;38.4;28.8;;;;;;;0.31;81.68848;971.31;;;;
2020/01/03 00:29:11;;;;;;;63;36;;;;;;;0.08;82.52344;971.3383;;;;
2020/01/03 00:31:37;;;;;;;42.9;30.8;;;;;;;0.07;82.52344;971.3186;;;;
2020/01/03 00:34:02;;;;;;;66.2;35.2;;;;;;;-0.24;82.97559;971.2673;;;;
2020/01/03 00:36:27;;;;;;;41.3;29.9;;;;;;;-0.12;83.02246;971.2614;;;;
2020/01/03 00:38:52;;;;;;;40.6;29.4;;;;;;;0.03;82.54883;971.255;;;;
2020/01/03 00:43:21;;;;;;;34.3;26.3;;;;;;;-0.03;82.34277;971.2028;;;;
2020/01/03 00:45:47;;;;;;;38.5;27.5;;;;;;;-0.09;82.22754;971.1803;;;;
2020/01/03 00:48:12;;;;;;;43.6;27.9;;;;;;;-0.04;81.92969;971.1495;;;;
2020/01/03 00:50:37;;;;;;;55.4;30.4;;;;;;;-0.02;81.5459;971.0699;;;;
2020/01/03 00:53:02;;;;;;;46.5;29.8;;;;;;;-0.19;82.08301;971.0615;;;;
2020/01/03 00:55:27;;;;;;;46;31;;;;;;;-0.16;81.88281;971.0372;;;;
2020/01/03 00:57:52;;;;;;;35.8;27.6;;;;;;;-0.08;81.52051;971.0715;;;;
2020/01/03 01:00:19;;;;;;;32.8;25.5;;;;;;;-0.13;81.44336;971.1063;;;;
2020/01/03 01:02:42;;;;;;;33.1;25.3;;;;;;;-0.25;81.83105;971.1147;;;;
2020/01/03 01:05:07;;;;;;;31.9;24.7;;;;;;;-0.14;81.57715;971.1719;;;;
2020/01/03 01:07:32;;;;;;;33.6;25.9;;;;;;;0.04;80.92676;971.2275;;;;
2020/01/03 01:09:57;;;;;;;36.1;27.6;;;;;;;-0.12;81.01074;971.2406;;;;
2020/01/03 01:12:22;;;;;;;31.4;24.6;;;;;;;-0.01;80.61914;971.2139;;;;
2020/01/03 01:14:47;;;;;;;30;23.8;;;;;;;-0.04;80.74023;971.1823;;;;
2020/01/03 01:17:12;;;;;;;33.8;26.4;;;;;;;-0.26;81.14355;971.2762;;;;
2020/01/03 01:19:37;;;;;;;29.6;23.9;;;;;;;-0.21;81.2793;971.2486;;;;
2020/01/03 01:22:03;;;;;;;31.3;25.7;;;;;;;-0.17;81.1377;971.3019;;;;
2020/01/03 01:24:28;;;;;;;32.4;25.2;;;;;;;-0.37;81.37305;971.2645;;;;
2020/01/03 01:26:53;;;;;;;38.7;28.7;;;;;;;-0.69;82.63574;971.1812;;;;
2020/01/03 01:29:18;;;;;;;32.5;25.8;;;;;;;-0.71;82.83789;971.0278;;;;
2020/01/03 01:31:58;;;;;;;31.7;24.7;;;;;;;-0.54;82.22168;970.9442;;;;
2020/01/03 01:34:08;;;;;;;28.2;22.4;;;;;;;-0.58;81.76758;970.9213;;;;
2020/01/03 01:36:33;;;;;;;28.3;22.6;;;;;;;-0.38;81.13184;970.9084;;;;
2020/01/03 01:38:58;;;;;;;27.8;23.3;;;;;;;-0.26;80.30957;970.8981;;;;
2020/01/03 01:41:23;;;;;;;27.4;22.8;;;;;;;-0.33;79.93066;970.9005;;;;
2020/01/03 01:43:48;;;;;;;26.6;22;;;;;;;-0.41;80.21094;970.8557;;;;
2020/01/03 01:46:13;;;;;;;26.3;22.1;;;;;;;-0.48;80.41602;970.8315;;;;
2020/01/03 01:48:38;;;;;;;26.3;22.1;;;;;;;-0.26;79.57813;970.8349;;;;
2020/01/03 01:51:04;;;;;;;24.5;20.8;;;;;;;-0.17;79.09082;970.7933;;;;
2020/01/03 01:53:29;;;;;;;26.9;21.9;;;;;;;-0.25;78.91895;970.7078;;;;
2020/01/03 01:55:54;;;;;;;26.3;21.9;;;;;;;-0.22;78.56934;970.7442;;;;
2020/01/03 01:58:19;;;;;;;25.9;21.4;;;;;;;-0.05;77.93945;970.7192;;;;
2020/01/03 02:00:44;;;;;;;26.5;20.6;;;;;;;-0.11;77.98535;970.7773;;;;
2020/01/03 02:03:09;;;;;;;24.8;20.4;;;;;;;-0.11;78.22363;970.7078;;;;
2020/01/03 02:05:34;;;;;;;28.1;22.2;;;;;;;-0.15;77.88379;970.5963;;;;
2020/01/03 02:07:59;;;;;;;26.5;21.5;;;;;;;-0.1;77.90625;970.6462;;;;
2020/01/03 02:10:24;;;;;;;25.7;21.4;;;;;;;0.03;77.41504;970.668;;;;
2020/01/03 02:12:49;;;;;;;24.4;20.4;;;;;;;-0.02;77.81836;970.6501;;;;
2020/01/03 02:15:14;;;;;;;25.4;20.4;;;;;;;0.14;77.36523;970.6163;;;;
2020/01/03 02:17:40;;;;;;;24.7;20.3;;;;;;;0.13;77.40918;970.6171;;;;
2020/01/03 02:20:05;;;;;;;24;19.5;;;;;;;0.23;77.14258;970.6845;;;;
2020/01/03 02:22:30;;;;;;;23.2;20.1;;;;;;;0.3;76.54785;970.6799;;;;
2020/01/03 02:24:55;;;;;;;23.7;20.2;;;;;;;0.31;76.80078;970.7252;;;;
2020/01/03 02:27:20;;;;;;;23.6;19.5;;;;;;;0.44;76.45996;970.6812;;;;
2020/01/03 02:29:45;;;;;;;24.5;19.9;;;;;;;0.49;76.57129;970.7772;;;;
2020/01/03 02:32:11;;;;;;;24.2;20.5;;;;;;;0.44;76.90527;970.7252;;;;
2020/01/03 02:34:36;;;;;;;23.9;20.2;;;;;;;0.43;76.75684;970.7084;;;;
2020/01/03 02:37:01;;;;;;;22.9;18.6;;;;;;;0.52;76.64648;970.6937;;;;
2020/01/03 02:39:26;;;;;;;24.5;20.7;;;;;;;0.54;76.45508;970.7022;;;;
2020/01/03 02:41:51;;;;;;;25.1;19.7;;;;;;;0.67;76.16992;970.6884;;;;
2020/01/03 02:44:16;;;;;;;24.8;20.4;;;;;;;0.6;76.36133;970.748;;;;
2020/01/03 02:46:41;;;;;;;23;19.8;;;;;;;0.67;76.3418;970.7429;;;;
2020/01/03 02:49:09;;;;;;;25.5;20.4;;;;;;;0.55;76.44531;970.7125;;;;
2020/01/03 02:51:38;;;;;;;24.4;20.2;;;;;;;0.63;76.23047;970.7065;;;;
2020/01/03 02:54:14;;;;;;;24.7;20.5;;;;;;;0.67;76.1582;970.63;;;;
2020/01/03 02:56:41;;;;;;;23.3;19.8;;;;;;;0.72;76.12207;970.6186;;;;
2020/01/03 02:58:50;;;;;;;24.8;20.1;;;;;;;0.71;75.92383;970.5886;;;;
2020/01/03 03:03:37;;;;;;;24.2;19.6;;;;;;;0.72;76.16602;970.4548;;;;
2020/01/03 03:06:02;;;;;;;24.5;20;;;;;;;0.78;75.92676;970.4771;;;;
2020/01/03 03:08:27;;;;;;;28.4;20.7;;;;;;;0.74;75.74707;970.4264;;;;
2020/01/03 03:10:52;;;;;;;23.8;20.2;;;;;;;0.64;76.55273;970.3759;;;;
2020/01/03 03:13:17;;;;;;;23.2;19.3;;;;;;;0.62;76.61816;970.336;;;;
2020/01/03 03:15:42;;;;;;;23.6;19.1;;;;;;;0.68;76.70996;970.343;;;;
2020/01/03 03:18:07;;;;;;;24.6;20.1;;;;;;;0.71;76.40527;970.258;;;;
2020/01/03 03:20:32;;;;;;;23.4;20.2;;;;;;;0.71;76.37109;970.2787;;;;
2020/01/03 03:22:57;;;;;;;23.3;19.9;;;;;;;0.73;76.66211;970.2527;;;;
2020/01/03 03:25:22;;;;;;;26.1;21.1;;;;;;;0.79;76.30469;970.2079;;;;
2020/01/03 03:27:48;;;;;;;25.1;21.1;;;;;;;0.74;76.62793;970.1358;;;;
2020/01/03 03:30:13;;;;;;;25.7;21.3;;;;;;;0.82;75.96582;970.0689;;;;
2020/01/03 03:32:38;;;;;;;26.7;21.2;;;;;;;0.76;76.31152;969.9815;;;;
2020/01/03 03:35:03;;;;;;;23.8;19.8;;;;;;;0.81;76.20508;969.9752;;;;
2020/01/03 03:37:28;;;;;;;23.2;19.4;;;;;;;0.76;76.83887;969.9847;;;;
2020/01/03 03:39:53;;;;;;;25.7;21;;;;;;;0.71;76.79492;969.9633;;;;
2020/01/03 03:42:18;;;;;;;23.8;20.1;;;;;;;0.64;76.79297;969.978;;;;
2020/01/03 03:44:43;;;;;;;21.9;19.1;;;;;;;0.76;76.2998;970.0464;;;;
2020/01/03 03:47:09;;;;;;;24.2;20.1;;;;;;;0.71;76.11914;970.0778;;;;
2020/01/03 03:49:41;;;;;;;30;24.7;;;;;;;0.65;76.7373;970.0906;;;;
2020/01/03 03:51:59;;;;;;;36.9;27.2;;;;;;;0.42;77.02832;970.0483;;;;
2020/01/03 03:54:24;;;;;;;30.4;24.1;;;;;;;0.36;77.64746;970.0636;;;;
2020/01/03 03:56:49;;;;;;;26.1;21.1;;;;;;;0.39;77.74609;970.088;;;;
2020/01/03 03:59:14;;;;;;;25.7;21.6;;;;;;;0.49;77.20117;970.0995;;;;
2020/01/03 04:02:27;;;;;;;23.7;19.9;;;;;;;0.5;77.35156;970.1433;;;;
2020/01/03 04:04:51;;;;;;;24.7;20.1;;;;;;;0.28;77.98828;970.1567;;;;
2020/01/03 04:07:16;;;;;;;24;21;;;;;;;0.41;77.80469;970.1551;;;;
2020/01/03 04:09:41;;;;;;;23.5;19.9;;;;;;;0.43;77.63574;970.1691;;;;
2020/01/03 04:12:06;;;;;;;25.2;21.4;;;;;;;0.51;77.49219;970.212;;;;
2020/01/03 04:14:31;;;;;;;24.9;20.2;;;;;;;0.61;77.17773;970.2441;;;;
2020/01/03 04:16:57;;;;;;;30.9;22.3;;;;;;;0.65;77.00098;970.2498;;;;
2020/01/03 04:19:22;;;;;;;37.8;23.8;;;;;;;0.79;76.46484;970.3264;;;;
2020/01/03 04:21:47;;;;;;;49.1;28;;;;;;;0.7;76.56348;970.3013;;;;
2020/01/03 04:24:12;;;;;;;60.3;30.1;;;;;;;0.69;76.93066;970.3148;;;;
2020/01/03 04:26:37;;;;;;;60.8;30.8;;;;;;;0.69;76.91895;970.2781;;;;
2020/01/03 04:29:02;;;;;;;43.6;25.9;;;;;;;0.68;77.25879;970.2997;;;;
2020/01/03 04:31:27;;;;;;;36.3;23.5;;;;;;;0.71;77.09375;970.2332;;;;
2020/01/03 04:33:52;;;;;;;31.3;22.8;;;;;;;0.74;76.83496;970.2094;;;;
2020/01/03 04:36:17;;;;;;;25.6;21.1;;;;;;;0.88;76.49219;970.2216;;;;
2020/01/03 04:38:42;;;;;;;26.4;21.7;;;;;;;0.91;76.55469;970.1273;;;;
2020/01/03 04:41:07;;;;;;;27;22.2;;;;;;;1.02;76.18555;970.1033;;;;
2020/01/03 04:43:32;;;;;;;25.7;21.5;;;;;;;0.96;76.39258;970.1498;;;;
2020/01/03 04:45:57;;;;;;;26.6;22.3;;;;;;;0.95;76.50684;970.125;;;;
2020/01/03 04:48:23;;;;;;;27.1;22.6;;;;;;;0.9;76.78418;970.1188;;;;
2020/01/03 04:50:48;;;;;;;26.9;22;;;;;;;0.85;77.02832;970.1308;;;;
2020/01/03 04:53:13;;;;;;;28.2;23;;;;;;;0.82;77.125;970.1297;;;;
2020/01/03 04:55:38;;;;;;;24.4;20.7;;;;;;;0.92;76.98145;970.1296;;;;
2020/01/03 04:58:03;;;;;;;27.2;22.1;;;;;;;0.92;76.87988;970.152;;;;
2020/01/03 05:00:28;;;;;;;27;23;;;;;;;0.91;77.16504;970.1746;;;;
2020/01/03 05:02:53;;;;;;;24.9;20.8;;;;;;;0.95;77.08008;970.1354;;;;
2020/01/03 05:05:18;;;;;;;26.2;21.2;;;;;;;0.88;77.43262;970.1926;;;;
2020/01/03 05:07:43;;;;;;;27.5;21.7;;;;;;;0.89;77.42188;970.1453;;;;
2020/01/03 05:10:08;;;;;;;27.9;23.1;;;;;;;0.93;77.41895;970.1655;;;;
2020/01/03 05:12:33;;;;;;;28.2;22.8;;;;;;;0.97;77.16309;970.1208;;;;
2020/01/03 05:14:58;;;;;;;27.1;22.2;;;;;;;1;77.2373;970.0843;;;;
2020/01/03 05:17:23;;;;;;;27.9;22.3;;;;;;;0.98;77.40527;970.048;;;;
2020/01/03 05:19:48;;;;;;;26.7;22.2;;;;;;;0.95;77.62988;970.1097;;;;
2020/01/03 05:22:13;;;;;;;24.4;20.8;;;;;;;0.93;77.68359;970.1487;;;;
2020/01/03 05:24:39;;;;;;;23.7;20;;;;;;;0.96;77.83789;970.1891;;;;
2020/01/03 05:27:04;;;;;;;24.2;20.2;;;;;;;0.97;77.78223;970.1802;;;;
2020/01/03 05:29:29;;;;;;;23.9;19.5;;;;;;;1.04;77.64453;970.1181;;;;
2020/01/03 05:31:54;;;;;;;24.9;20.5;;;;;;;1.12;77.39551;970.088;;;;
2020/01/03 05:34:19;;;;;;;25.5;21.1;;;;;;;1.04;77.38281;970.062;;;;
2020/01/03 05:36:44;;;;;;;27.2;21.6;;;;;;;1.01;78.13281;969.9456;;;;
2020/01/03 05:39:10;;;;;;;27;21;;;;;;;0.95;77.95117;969.8856;;;;
2020/01/03 05:41:37;;;;;;;27.1;21.5;;;;;;;1;77.91309;969.8848;;;;
2020/01/03 05:44:01;;;;;;;26.5;22.2;;;;;;;0.95;78.15723;969.8438;;;;
2020/01/03 05:49:02;;;;;;;28;23.1;;;;;;;1.02;78.00977;969.829;;;;
2020/01/03 05:51:18;;;;;;;29;23.6;;;;;;;1.05;77.70508;969.8063;;;;
2020/01/03 05:53:41;;;;;;;29.7;23.6;;;;;;;1;78.14258;969.7839;;;;
2020/01/03 05:56:06;;;;;;;29.7;23.9;;;;;;;0.94;78.40625;969.8588;;;;
2020/01/03 05:58:31;;;;;;;26.4;21.6;;;;;;;0.84;78.83496;969.7905;;;;
2020/01/03 06:00:56;;;;;;;26.3;21.1;;;;;;;0.91;78.82324;969.8406;;;;
2020/01/03 06:03:21;;;;;;;26.6;21.7;;;;;;;0.96;78.48926;969.8094;;;;
2020/01/03 06:05:46;;;;;;;25.5;21.3;;;;;;;0.98;78.37988;969.8384;;;;
2020/01/03 06:08:11;;;;;;;26.4;21.7;;;;;;;1.03;78.16016;969.8081;;;;
2020/01/03 06:10:37;;;;;;;25.9;21;;;;;;;1.06;78.0625;969.7371;;;;
2020/01/03 06:13:02;;;;;;;25.4;20.2;;;;;;;1.08;78.09961;969.664;;;;
2020/01/03 06:15:27;;;;;;;26.7;22.2;;;;;;;1.06;78.0625;969.6501;;;;
2020/01/03 06:17:52;;;;;;;29.2;22.6;;;;;;;1.08;78.14746;969.6326;;;;
2020/01/03 06:20:17;;;;;;;28.6;23.4;;;;;;;1.12;77.84277;969.6336;;;;
2020/01/03 06:22:42;;;;;;;26.6;22.8;;;;;;;1.11;77.68066;969.6266;;;;
2020/01/03 06:25:07;;;;;;;27;21.1;;;;;;;1.02;78.07813;969.6496;;;;
2020/01/03 06:27:33;;;;;;;28.1;22.7;;;;;;;0.97;78.25195;969.7139;;;;
2020/01/03 06:29:58;;;;;;;28.1;20.9;;;;;;;1;78.32617;969.7247;;;;
2020/01/03 06:32:23;;;;;;;25;20.7;;;;;;;0.98;78.4375;969.7636;;;;
2020/01/03 06:34:48;;;;;;;26.6;21.6;;;;;;;0.96;78.42285;969.823;;;;
2020/01/03 06:37:13;;;;;;;25.8;21.1;;;;;;;0.96;78.51367;969.7605;;;;
2020/01/03 06:39:38;;;;;;;27.1;21.9;;;;;;;0.99;78.30078;969.7399;;;;
2020/01/03 06:42:03;;;;;;;26.7;22.1;;;;;;;0.94;78.80664;969.7353;;;;
2020/01/03 06:44:28;;;;;;;26.8;21.6;;;;;;;1.05;78.10645;969.6998;;;;
2020/01/03 06:48:48;;;;;;;26.1;21.4;;;;;;;1.07;77.5957;969.6728;;;;
2020/01/03 06:51:13;;;;;;;24.7;20.9;;;;;;;1.06;77.5;969.6565;;;;
2020/01/03 06:53:38;;;;;;;30.8;25.2;;;;;;;1.06;77.43164;969.7098;;;;
2020/01/03 06:56:03;;;;;;;37.3;31;;;;;;;1.07;77.72949;969.717;;;;
2020/01/03 06:58:28;;;;;;;40.8;32.9;;;;;;;1.14;77.34473;969.7092;;;;
2020/01/03 07:01:01;;;;;;;35.7;29.5;;;;;;;1.06;77.67188;969.6818;;;;
2020/01/03 07:05:54;;;;;;;32.9;26.3;;;;;;;1.01;77.61719;969.7294;;;;
2020/01/03 07:08:15;;;;;;;30.4;24.8;;;;;;;1.17;78.77148;969.6305;;;;
2020/01/03 07:10:34;;;;;;;31.6;25.9;;;;;;;1.09;77.87402;969.5781;;;;
2020/01/03 07:12:59;;;;;;;29.8;24.3;;;;;;;1.13;78.14258;969.4966;;;;
2020/01/03 07:15:24;;;;;;;29.4;22.7;;;;;;;1.24;77.34863;969.4705;;;;
2020/01/03 07:17:49;;;;;;;28.2;21.1;;;;;;;1.32;77.12305;969.4033;;;;
2020/01/03 07:20:14;;;;;;;25.4;21.3;;;;;;;1.35;76.90918;969.4692;;;;
2020/01/03 07:22:39;;;;;;;26.7;21;;;;;;;1.5;76.52539;969.3901;;;;
2020/01/03 07:25:04;;;;;;;26.7;22.2;;;;;;;1.48;76.08496;969.3375;;;;
2020/01/03 07:27:29;;;;;;;25;21.1;;;;;;;1.46;76.45996;969.3203;;;;
2020/01/03 07:29:55;;;;;;;24.5;20;;;;;;;1.49;76.85645;969.3494;;;;
2020/01/03 07:32:20;;;;;;;29.9;23.4;;;;;;;1.56;76.85645;969.3511;;;;
2020/01/03 07:34:45;;;;;;;25.9;20.8;;;;;;;1.72;75.81836;969.3287;;;;
2020/01/03 07:37:10;;;;;;;26.8;21.9;;;;;;;1.9;75.28711;969.3233;;;;
2020/01/03 07:39:35;;;;;;;25.5;20;;;;;;;2.03;75.65527;969.1875;;;;
2020/01/03 07:42:00;;;;;;;25.1;19.5;;;;;;;2.21;74.88379;969.1866;;;;
2020/01/03 07:44:26;;;;;;;26.9;21.1;;;;;;;2.15;75.21777;969.1969;;;;
2020/01/03 07:46:51;;;;;;;25.9;20.5;;;;;;;2.34;74.94043;969.0817;;;;
2020/01/03 07:49:16;;;;;;;26.5;21.3;;;;;;;2.56;74.09375;969.0653;;;;
2020/01/03 07:51:41;;;;;;;25.2;20.3;;;;;;;2.7;73.43848;969.0377;;;;
2020/01/03 07:54:06;;;;;;;26.1;20.5;;;;;;;2.84;72.93359;969.0549;;;;
2020/01/03 07:56:31;;;;;;;25.5;21.1;;;;;;;3.03;72.93066;969.1465;;;;
2020/01/03 07:58:56;;;;;;;23.3;19.8;;;;;;;3.92;69.85547;969.0952;;;;
2020/01/03 08:01:21;;;;;;;23.9;18.4;;;;;;;4.26;68.61621;969.163;;;;
2020/01/03 08:03:47;;;;;;;22.2;17.7;;;;;;;4.29;68.67871;969.142;;;;
2020/01/03 08:06:12;;;;;;;22.4;18;;;;;;;4.17;69.37402;969.1086;;;;
2020/01/03 08:08:37;;;;;;;20.8;16;;;;;;;4.79;67.61523;969.1075;;;;
2020/01/03 08:11:02;;;;;;;23.5;16.6;;;;;;;5.74;64.06738;969.0886;;;;
2020/01/03 08:13:28;;;;;;;19.2;14.5;;;;;;;5.64;63.95898;969.0296;;;;
2020/01/03 08:15:53;;;;;;;19;14.4;;;;;;;5.81;63.4541;969.0491;;;;
2020/01/03 08:18:18;;;;;;;18.2;14.8;;;;;;;5.19;65.29395;969.0134;;;;
2020/01/03 08:20:43;;;;;;;16.7;13.6;;;;;;;5.56;64.7832;969.063;;;;
2020/01/03 08:23:08;;;;;;;17.9;14.4;;;;;;;6.01;62.99512;969.0184;;;;
2020/01/03 08:25:33;;;;;;;17.5;13.4;;;;;;;6.11;62.77734;968.9962;;;;
2020/01/03 08:27:58;;;;;;;18.8;14.7;;;;;;;6.06;62.99023;969.1806;;;;
2020/01/03 08:30:23;;;;;;;16.9;14.1;;;;;;;6.48;61.58984;969.1273;;;;
2020/01/03 08:32:49;;;;;;;15;12.7;;;;;;;7.15;59.74414;969.0553;;;;
2020/01/03 08:35:14;;;;;;;16.2;12.1;;;;;;;8.05;56.96875;968.9781;;;;
2020/01/03 08:37:39;;;;;;;14.5;12.1;;;;;;;8.78;54.58984;969.0714;;;;
2020/01/03 08:40:04;;;;;;;15.3;11.9;;;;;;;10.99;49.42676;969.0256;;;;
2020/01/03 08:42:30;;;;;;;15;12;;;;;;;13.34;42.48828;968.8845;;;;
2020/01/03 08:44:55;;;;;;;19.4;12.7;;;;;;;13.32;42.21484;968.8811;;;;
2020/01/03 08:47:20;;;;;;;16.1;12.7;;;;;;;11.2;47.27832;968.8984;;;;
2020/01/03 08:49:45;;;;;;;16.9;12.8;;;;;;;8.88;53.97266;968.8964;;;;
2020/01/03 08:52:10;;;;;;;17.3;12.7;;;;;;;7.82;57.68359;968.9359;;;;
2020/01/03 08:54:35;;;;;;;16.1;12.7;;;;;;;7.01;60.53809;968.9535;;;;
2020/01/03 08:57:00;;;;;;;16.6;12.8;;;;;;;6.62;62.35254;969.0108;;;;
2020/01/03 08:59:25;;;;;;;15.3;12.4;;;;;;;6.21;64.06836;969.0004;;;;
2020/01/03 09:01:52;;;;;;;19;13.8;;;;;;;5.73;66.22168;968.8964;;;;
2020/01/03 09:04:20;;;;;;;18;13.5;;;;;;;5.66;67.25391;968.8401;;;;
2020/01/03 09:07:01;;;;;;;18.6;13.2;;;;;;;5.7;66.85352;968.8444;;;;
2020/01/03 09:09:19;;;;;;;16;11.8;;;;;;;5.56;67.78223;968.8872;;;;
2020/01/03 09:11:32;;;;;;;16.3;12.9;;;;;;;5.52;68.40234;968.8563;;;;
2020/01/03 09:13:57;;;;;;;16.1;13;;;;;;;5.65;68.28418;968.8469;;;;
2020/01/03 09:16:22;;;;;;;17.1;13.5;;;;;;;5.58;68.92188;968.9017;;;;
2020/01/03 09:18:47;;;;;;;18.4;13.7;;;;;;;5.48;69.50684;968.9344;;;;
2020/01/03 09:21:12;;;;;;;15.6;12.5;;;;;;;5.73;68.61133;968.8616;;;;
2020/01/03 09:23:37;;;;;;;17.8;13.8;;;;;;;5.52;69.375;968.837;;;;
2020/01/03 09:26:02;;;;;;;18.6;14.6;;;;;;;5.42;70.1582;968.7461;;;;
2020/01/03 09:28:27;;;;;;;17.9;13.9;;;;;;;5.43;70.4707;968.7969;;;;
2020/01/03 09:30:52;;;;;;;15.1;12.3;;;;;;;5.43;69.79883;968.7566;;;;
2020/01/03 09:33:17;;;;;;;16.1;12.7;;;;;;;5.29;70.49512;968.7467;;;;
2020/01/03 09:35:42;;;;;;;16;12.5;;;;;;;5.19;71.01172;968.7318;;;;
2020/01/03 09:38:07;;;;;;;14.8;12;;;;;;;5.34;70.26074;968.7756;;;;
2020/01/03 09:40:33;;;;;;;17.2;12.3;;;;;;;5.48;70.88672;968.7366;;;;
2020/01/03 09:42:58;;;;;;;15.1;11.6;;;;;;;5.65;69.89355;968.7542;;;;
2020/01/03 09:45:23;;;;;;;14.7;11.8;;;;;;;5.72;69.48926;968.6997;;;;
2020/01/03 09:47:48;;;;;;;16.7;12.1;;;;;;;5.9;69.3916;968.6124;;;;
2020/01/03 09:50:13;;;;;;;17.2;12;;;;;;;6;68.93066;968.5597;;;;
2020/01/03 09:52:38;;;;;;;15.4;11.9;;;;;;;6.09;68.85254;968.5712;;;;
2020/01/03 09:55:03;;;;;;;14.9;12;;;;;;;6.18;69.11035;968.5984;;;;
2020/01/03 09:57:28;;;;;;;14.6;12.2;;;;;;;6.2;69.42676;968.6607;;;;
2020/01/03 09:59:53;;;;;;;16.1;13.2;;;;;;;6.22;70.12695;968.605;;;;
2020/01/03 10:02:18;;;;;;;18.1;12.7;;;;;;;6.31;69.23633;968.5107;;;;
2020/01/03 10:04:43;;;;;;;15;12.3;;;;;;;6.55;67.84668;968.4648;;;;
2020/01/03 10:07:09;;;;;;;15.9;11.6;;;;;;;6.75;66.53223;968.3885;;;;
2020/01/03 10:09:34;;;;;;;13.5;11.4;;;;;;;6.88;65.49316;968.3953;;;;
2020/01/03 10:11:59;;;;;;;13;10.9;;;;;;;7.02;65.21191;968.3845;;;;
2020/01/03 10:14:24;;;;;;;13.9;10.4;;;;;;;6.89;64.9707;968.3812;;;;
2020/01/03 10:16:49;;;;;;;12.6;10.2;;;;;;;6.98;65.05566;968.4001;;;;
2020/01/03 10:19:14;;;;;;;14.7;11;;;;;;;6.94;65.12988;968.4294;;;;
2020/01/03 10:21:39;;;;;;;13.3;10.9;;;;;;;6.69;65.84668;968.442;;;;
2020/01/03 10:24:04;;;;;;;13.1;10.2;;;;;;;6.61;65.87012;968.4512;;;;
2020/01/03 10:26:29;;;;;;;12.9;10.2;;;;;;;6.45;66.00879;968.3881;;;;
2020/01/03 10:28:55;;;;;;;13.7;10.4;;;;;;;6.44;66.13477;968.415;;;;
2020/01/03 10:31:20;;;;;;;13.9;10.4;;;;;;;6.35;66.375;968.4197;;;;
2020/01/03 10:33:45;;;;;;;12.3;9.6;;;;;;;6.43;65.78516;968.3992;;;;
2020/01/03 10:36:10;;;;;;;13.8;10.5;;;;;;;6.41;65.65234;968.3996;;;;
2020/01/03 10:38:35;;;;;;;14.3;10.4;;;;;;;6.43;65.62305;968.4041;;;;
2020/01/03 10:41:00;;;;;;;12.5;9.9;;;;;;;6.34;65.85156;968.3815;;;;
2020/01/03 10:43:25;;;;;;;16.6;10.7;;;;;;;6.55;65.93066;968.3654;;;;
2020/01/03 10:45:50;;;;;;;13;10.3;;;;;;;6.45;66.32227;968.3551;;;;
2020/01/03 10:48:15;;;;;;;14.4;10;;;;;;;6.41;64.93359;968.3454;;;;
2020/01/03 10:50:40;;;;;;;13.5;10.9;;;;;;;6.29;65.48535;968.3491;;;;
2020/01/03 10:53:06;;;;;;;13.8;11;;;;;;;6.25;66.09375;968.3486;;;;
2020/01/03 10:55:31;;;;;;;13.9;10.7;;;;;;;6.27;65.37695;968.2505;;;;
2020/01/03 10:57:56;;;;;;;14.3;12;;;;;;;6.27;65.60938;968.2198;;;;
2020/01/03 11:00:21;;;;;;;15.6;12.3;;;;;;;6.35;65.58594;968.1844;;;;
2020/01/03 11:02:46;;;;;;;18.4;13;;;;;;;6.24;65.89355;968.1057;;;;
2020/01/03 11:05:12;;;;;;;16.5;13.5;;;;;;;6.21;66.08691;968.0511;;;;
2020/01/03 11:07:37;;;;;;;17.2;13.4;;;;;;;6.16;66.26465;968.0087;;;;
2020/01/03 11:10:02;;;;;;;18.5;13.8;;;;;;;6.27;66.27148;968.0121;;;;
2020/01/03 11:12:27;;;;;;;16.7;13.3;;;;;;;6.39;66.10547;968.0404;;;;
2020/01/03 11:14:55;;;;;;;16.9;13.3;;;;;;;6.46;66.08008;968.0416;;;;
2020/01/03 11:19:48;;;;;;;17.1;14;;;;;;;6.57;65.99121;967.9189;;;;
2020/01/03 11:24:33;;;;;;;18;14.1;;;;;;;6.6;66.16992;967.8356;;;;
2020/01/03 11:26:58;;;;;;;17.1;13.7;;;;;;;6.61;66.03223;967.8702;;;;
2020/01/03 11:29:23;;;;;;;18.8;13.9;;;;;;;6.63;66.09375;967.8495;;;;
2020/01/03 11:31:48;;;;;;;22;16.1;;;;;;;6.64;65.99219;967.8525;;;;
2020/01/03 11:34:13;;;;;;;19.4;16.3;;;;;;;6.77;65.68555;967.8483;;;;
2020/01/03 11:36:39;;;;;;;19;15.9;;;;;;;6.87;65.47949;967.7983;;;;
2020/01/03 11:39:04;;;;;;;19.4;15.7;;;;;;;6.98;65.02051;967.8047;;;;
2020/01/03 11:41:29;;;;;;;20.1;14.6;;;;;;;7.1;64.79492;967.7603;;;;
2020/01/03 11:43:54;;;;;;;15.4;13.6;;;;;;;7.06;64.88184;967.7632;;;;
2020/01/03 11:46:19;;;;;;;18.8;14.7;;;;;;;7.18;65.05176;967.8036;;;;
2020/01/03 11:48:44;;;;;;;17.7;14;;;;;;;7.2;64.94922;967.7296;;;;
2020/01/03 11:51:09;;;;;;;17.7;13.3;;;;;;;7.34;64.55176;967.7512;;;;
2020/01/03 11:53:35;;;;;;;18.9;12.9;;;;;;;7.28;64.54297;967.7542;;;;
2020/01/03 11:56:00;;;;;;;18;12.8;;;;;;;7.28;64.28711;967.7139;;;;
2020/01/03 11:58:25;;;;;;;18.4;12.2;;;;;;;7.33;63.8291;967.7662;;;;
2020/01/03 12:00:50;;;;;;;14.3;11.3;;;;;;;7.23;64.45313;967.7651;;;;
2020/01/03 12:03:15;;;;;;;14;11.4;;;;;;;7.27;64.22754;967.6986;;;;
2020/01/03 12:05:40;;;;;;;15.3;11;;;;;;;7.24;64.46582;967.7673;;;;
2020/01/03 12:08:05;;;;;;;15.5;11.8;;;;;;;7.22;64.60449;967.7283;;;;
2020/01/03 12:10:31;;;;;;;13.1;10.8;;;;;;;7.23;64.5;967.69;;;;
2020/01/03 12:12:56;;;;;;;14.6;11.1;;;;;;;7.2;64.26367;967.7367;;;;
2020/01/03 12:15:21;;;;;;;13.4;10.8;;;;;;;7.2;64.53027;967.7704;;;;
2020/01/03 12:17:46;;;;;;;14.1;10.7;;;;;;;7.35;64.22754;967.7581;;;;
2020/01/03 12:20:11;;;;;;;16.5;11;;;;;;;7.46;63.87109;967.7153;;;;
2020/01/03 12:22:36;;;;;;;14.4;10.5;;;;;;;7.64;63.78223;967.7795;;;;
2020/01/03 12:25:01;;;;;;;14.5;10.3;;;;;;;7.73;63.48047;967.7603;;;;
2020/01/03 12:27:26;;;;;;;14.1;10.6;;;;;;;7.9;63.28516;967.7333;;;;
2020/01/03 12:29:51;;;;;;;13.1;10.8;;;;;;;8.03;62.38281;967.7404;;;;
2020/01/03 12:32:16;;;;;;;13.6;10.7;;;;;;;7.97;62.68945;967.695;;;;
2020/01/03 12:34:42;;;;;;;14.5;10.5;;;;;;;8.15;62.14453;967.6883;;;;
2020/01/03 12:37:07;;;;;;;16.2;11;;;;;;;8.09;62.28711;967.6926;;;;
2020/01/03 12:39:32;;;;;;;16.2;10.7;;;;;;;8.08;62.63574;967.6889;;;;
2020/01/03 12:41:57;;;;;;;15.7;11;;;;;;;8.06;62.66797;967.7095;;;;
2020/01/03 12:44:22;;;;;;;14.3;10.8;;;;;;;7.95;63.32715;967.6964;;;;
2020/01/03 12:49:37;;;;;;;14.4;11.3;;;;;;;7.86;63.54688;967.6906;;;;
2020/01/03 12:52:02;;;;;;;14.7;11.3;;;;;;;7.87;63.74512;967.6541;;;;
2020/01/03 12:54:27;;;;;;;15.3;11.3;;;;;;;7.91;63.72754;967.6456;;;;
2020/01/03 12:56:52;;;;;;;15.8;11.5;;;;;;;7.84;64.16016;967.6264;;;;
2020/01/03 12:59:18;;;;;;;15.1;10.8;;;;;;;7.89;64.10938;967.5867;;;;
2020/01/03 13:01:43;;;;;;;13.6;10.6;;;;;;;7.82;64.12402;967.6156;;;;
2020/01/03 13:04:08;;;;;;;19.6;15;;;;;;;7.88;64.15527;967.6715;;;;
2020/01/03 13:06:33;;;;;;;16.4;11.3;;;;;;;7.87;64.3877;967.6627;;;;
2020/01/03 13:08:58;;;;;;;16.5;11.8;;;;;;;7.89;64.43555;967.6507;;;;
2020/01/03 13:11:23;;;;;;;17.2;12.9;;;;;;;7.86;64.62988;967.7353;;;;
2020/01/03 13:13:48;;;;;;;14.5;10.2;;;;;;;7.85;64.62891;967.6705;;;;
2020/01/03 13:16:13;;;;;;;14.4;10.5;;;;;;;7.73;64.77344;967.7668;;;;
2020/01/03 13:18:38;;;;;;;13.5;10.2;;;;;;;7.77;64.91992;967.7844;;;;
2020/01/03 13:21:03;;;;;;;14.1;10.7;;;;;;;7.85;64.96484;967.7264;;;;
2020/01/03 13:23:28;;;;;;;15.2;10.7;;;;;;;7.89;64.6123;967.7717;;;;
2020/01/03 13:25:53;;;;;;;14;10.6;;;;;;;7.83;64.8125;967.7271;;;;
2020/01/03 13:30:44;;;;;;;16.6;10.5;;;;;;;7.77;65.43164;967.8376;;;;
2020/01/03 13:33:33;;;;;;;13.8;10.7;;;;;;;7.82;65.5332;967.8198;;;;
2020/01/03 13:42:49;;;;;;;18.7;14.4;;;;;;;7.76;65.97656;967.903;;;;
2020/01/03 13:45:15;;;;;;;19.9;14.3;;;;;;;7.73;66.37988;967.9239;;;;
2020/01/03 13:47:40;;;;;;;19.4;14.8;;;;;;;7.69;66.66602;967.9646;;;;
2020/01/03 13:50:05;;;;;;;20.1;15.3;;;;;;;7.68;66.72266;967.9292;;;;
2020/01/03 13:52:30;;;;;;;20.8;14.9;;;;;;;7.69;66.83984;967.8762;;;;
2020/01/03 13:54:55;;;;;;;20.3;16;;;;;;;7.66;67.04395;967.8939;;;;
2020/01/03 13:57:20;;;;;;;21.9;15.8;;;;;;;7.59;67.4873;967.9515;;;;
2020/01/03 13:59:45;;;;;;;19.1;15.5;;;;;;;7.64;67.29785;967.9441;;;;
2020/01/03 14:02:10;;;;;;;19.6;15.5;;;;;;;7.49;67.87891;967.9177;;;;
2020/01/03 14:04:36;;;;;;;20;15.1;;;;;;;7.51;67.92871;967.8667;;;;
2020/01/03 14:07:01;;;;;;;19.1;15.4;;;;;;;7.55;67.83105;967.8739;;;;
2020/01/03 14:09:26;;;;;;;20.3;15.7;;;;;;;7.52;67.92969;967.9617;;;;
2020/01/03 14:11:51;;;;;;;19.5;15;;;;;;;7.55;67.85449;967.9796;;;;
2020/01/03 14:14:16;;;;;;;19.6;15;;;;;;;7.48;68.22754;967.952;;;;
2020/01/03 14:16:41;;;;;;;19.7;15.1;;;;;;;7.51;68.16113;967.9106;;;;
2020/01/03 14:19:07;;;;;;;18.4;14.9;;;;;;;7.41;68.55176;967.8826;;;;
2020/01/03 14:21:32;;;;;;;20;15;;;;;;;7.48;68.43555;967.881;;;;
2020/01/03 14:23:57;;;;;;;19.8;15.7;;;;;;;7.46;68.58398;967.8965;;;;
2020/01/03 14:26:22;;;;;;;22.9;14.8;;;;;;;7.45;68.70996;967.9381;;;;
2020/01/03 14:28:47;;;;;;;19.4;14.9;;;;;;;7.44;68.91797;967.9495;;;;